createdAt,value
2018-12-26T00:00:35.171Z,-0.03
2018-12-26T00:05:35.860Z,-0.46
2018-12-26T00:10:36.543Z,-0.54
2018-12-26T00:15:37.281Z,-0.68
2018-12-26T00:20:37.903Z,-0.55
2018-12-26T00:25:44.431Z,-0.28
2018-12-26T00:30:45.396Z,-0.15
2018-12-26T00:35:46.323Z,-0.54
2018-12-26T00:40:48.248Z,-0.75
2018-12-26T00:45:48.952Z,-0.88
2018-12-26T00:50:50.876Z,-0.78
2018-12-26T00:55:51.772Z,-1.26
2018-12-26T01:00:52.422Z,-0.89
2018-12-26T01:05:55.129Z,-0.51
2018-12-26T01:10:55.986Z,-1.10
2018-12-26T01:15:56.640Z,-0.89
2018-12-26T01:20:57.310Z,-1.27
2018-12-26T01:25:58.262Z,-1.16
2018-12-26T01:30:59.205Z,-1.09
2018-12-26T01:36:00.095Z,-0.90
2018-12-26T01:41:01.834Z,-1.01
2018-12-26T01:46:02.448Z,-1.18
2018-12-26T01:51:03.111Z,-1.12
2018-12-26T01:56:03.994Z,-1.42
2018-12-26T02:01:04.729Z,-1.46
2018-12-26T02:06:05.459Z,-1.23
2018-12-26T02:11:06.126Z,-1.39
2018-12-26T02:16:07.138Z,-1.25
2018-12-26T02:21:07.820Z,-0.98
2018-12-26T02:26:08.459Z,-1.08
2018-12-26T02:31:09.385Z,-1.32
2018-12-26T02:36:11.115Z,-1.25
2018-12-26T02:41:14.858Z,-1.39
2018-12-26T02:46:15.562Z,-1.70
2018-12-26T02:51:18.173Z,-1.54
2018-12-26T02:56:19.117Z,-2.05
2018-12-26T03:01:20.858Z,-1.62
2018-12-26T03:06:21.554Z,-1.81
2018-12-26T03:11:24.543Z,-1.69
2018-12-26T03:16:25.207Z,-1.76
2018-12-26T03:21:27.163Z,-1.66
2018-12-26T03:26:29.118Z,-1.77
2018-12-26T03:31:30.213Z,-1.60
2018-12-26T03:36:31.180Z,-1.47
2018-12-26T03:41:32.064Z,-1.66
2018-12-26T03:46:33.079Z,-1.63
2018-12-26T03:51:33.979Z,-1.62
2018-12-26T03:56:34.955Z,-1.78
2018-12-26T04:01:35.906Z,-1.75
2018-12-26T04:06:37.817Z,-2.16
2018-12-26T04:11:39.634Z,-2.10
2018-12-26T04:16:40.372Z,-2.09
2018-12-26T04:21:41.317Z,-2.09
2018-12-26T04:26:42.248Z,-2.09
2018-12-26T04:31:43.197Z,-2.00
2018-12-26T04:36:44.125Z,-2.12
2018-12-26T04:41:57.118Z,-2.26
2018-12-26T04:46:59.059Z,-2.00
2018-12-26T04:51:59.762Z,-2.00
2018-12-26T04:57:00.423Z,-2.19
2018-12-26T05:02:01.318Z,-2.01
2018-12-26T05:07:02.286Z,-2.04
2018-12-26T05:12:02.995Z,-1.81
2018-12-26T05:17:04.936Z,-2.01
2018-12-26T05:22:06.785Z,-2.36
2018-12-26T05:27:07.738Z,-2.08
2018-12-26T05:32:08.674Z,-2.30
2018-12-26T05:37:09.646Z,-2.10
2018-12-26T05:42:11.427Z,-2.33
2018-12-26T05:47:12.369Z,-2.18
2018-12-26T05:52:13.381Z,-2.13
2018-12-26T05:57:15.081Z,-2.19
2018-12-26T06:02:16.043Z,-2.21
2018-12-26T06:07:17.992Z,-2.21
2018-12-26T06:12:19.914Z,-2.11
2018-12-26T06:17:20.647Z,-2.14
2018-12-26T06:22:21.331Z,-1.87
2018-12-26T06:27:22.588Z,-2.01
2018-12-26T06:32:24.140Z,-1.98
2018-12-26T06:37:24.876Z,-2.21
2018-12-26T06:42:25.808Z,-1.95
2018-12-26T06:47:26.738Z,-2.03
2018-12-26T06:52:27.667Z,-3.02
2018-12-26T06:57:28.382Z,-2.48
2018-12-26T07:02:29.039Z,-2.42
2018-12-26T07:07:29.926Z,-2.15
2018-12-26T07:12:30.886Z,-2.19
2018-12-26T07:17:31.597Z,-1.99
2018-12-26T07:22:32.493Z,-2.27
2018-12-26T07:27:33.434Z,-2.24
2018-12-26T07:32:34.404Z,-2.24
2018-12-26T07:37:35.102Z,-2.30
2018-12-26T07:42:37.030Z,-1.91
2018-12-26T07:47:38.005Z,-2.00
2018-12-26T07:52:39.038Z,-1.86
2018-12-26T07:57:39.755Z,-2.25
2018-12-26T08:02:40.638Z,-1.76
2018-12-26T08:07:41.393Z,-1.63
2018-12-26T08:12:42.111Z,-2.28
2018-12-26T08:17:43.002Z,-1.42
2018-12-26T08:22:43.702Z,-1.00
2018-12-26T08:27:44.623Z,-0.75
2018-12-26T08:32:45.357Z,-0.92
2018-12-26T08:37:46.100Z,-0.83
2018-12-26T08:42:46.720Z,-0.89
2018-12-26T08:47:47.375Z,-0.47
2018-12-26T08:52:50.188Z,-0.34
2018-12-26T08:57:50.671Z,-0.07
2018-12-26T09:02:51.615Z,-0.12
2018-12-26T09:07:52.564Z,0.18
2018-12-26T09:12:53.585Z,0.81
2018-12-26T09:17:54.280Z,0.94
2018-12-26T09:22:54.981Z,1.07
2018-12-26T09:27:55.704Z,1.61
2018-12-26T09:32:56.407Z,0.87
2018-12-26T09:37:57.026Z,1.56
2018-12-26T09:42:58.001Z,1.97
2018-12-26T09:47:58.757Z,2.03
2018-12-26T09:52:59.747Z,1.42
2018-12-26T09:58:00.676Z,1.42
2018-12-26T10:03:01.554Z,0.84
2018-12-26T10:08:02.492Z,0.58
2018-12-26T10:13:03.471Z,1.08
2018-12-26T10:18:04.393Z,1.13
2018-12-26T10:23:05.253Z,0.86
2018-12-26T10:28:06.146Z,0.99
2018-12-26T10:33:06.865Z,1.55
2018-12-26T10:38:07.651Z,1.31
2018-12-26T10:43:08.356Z,1.70
2018-12-26T10:48:08.995Z,1.95
2018-12-26T10:53:09.763Z,1.70
2018-12-26T10:58:10.511Z,1.61
2018-12-26T11:03:11.137Z,2.89
2018-12-26T11:08:12.047Z,2.97
2018-12-26T11:13:13.007Z,2.56
2018-12-26T11:18:13.932Z,2.11
2018-12-26T11:23:14.661Z,2.79
2018-12-26T11:28:15.503Z,3.59
2018-12-26T11:33:16.182Z,3.77
2018-12-26T11:38:16.821Z,4.13
2018-12-26T11:43:17.602Z,4.41
2018-12-26T11:48:18.332Z,3.04
2018-12-26T11:53:18.996Z,2.92
2018-12-26T11:58:19.612Z,3.75
2018-12-26T12:03:20.577Z,3.79
2018-12-26T12:08:21.468Z,4.04
2018-12-26T12:13:22.183Z,4.75
2018-12-26T12:18:23.036Z,4.65
2018-12-26T12:23:23.937Z,5.08
2018-12-26T12:28:24.888Z,5.40
2018-12-26T12:33:25.607Z,5.43
2018-12-26T12:38:26.239Z,5.76
2018-12-26T12:43:26.946Z,4.83
2018-12-26T12:48:28.009Z,3.70
2018-12-26T12:53:28.879Z,3.63
2018-12-26T12:58:29.804Z,3.87
2018-12-26T13:03:30.673Z,3.78
2018-12-26T13:08:31.611Z,3.83
2018-12-26T13:13:32.597Z,3.50
2018-12-26T13:18:33.514Z,4.25
2018-12-26T13:23:34.553Z,4.35
2018-12-26T13:28:35.193Z,3.77
2018-12-26T13:33:35.856Z,4.05
2018-12-26T13:38:36.513Z,3.79
2018-12-26T13:43:37.397Z,4.01
2018-12-26T13:48:38.348Z,3.79
2018-12-26T13:53:39.061Z,3.85
2018-12-26T13:58:39.707Z,3.97
2018-12-26T14:03:40.373Z,3.96
2018-12-26T14:08:41.117Z,3.93
2018-12-26T14:13:41.770Z,4.29
2018-12-26T14:18:42.408Z,4.88
2018-12-26T14:23:43.053Z,4.67
2018-12-26T14:28:43.719Z,4.47
2018-12-26T14:33:44.614Z,4.34
2018-12-26T14:38:46.332Z,4.40
2018-12-26T14:43:47.000Z,4.65
2018-12-26T14:48:47.648Z,4.48
2018-12-26T14:53:48.301Z,4.22
2018-12-26T14:58:48.949Z,4.37
2018-12-26T15:03:49.827Z,4.66
2018-12-26T15:08:50.541Z,4.41
2018-12-26T15:13:51.192Z,3.99
2018-12-26T15:18:51.866Z,3.92
2018-12-26T15:23:52.497Z,3.95
2018-12-26T15:28:53.369Z,3.85
2018-12-26T15:33:54.114Z,3.90
2018-12-26T15:38:54.737Z,3.74
2018-12-26T15:43:55.619Z,3.65
2018-12-26T15:48:56.483Z,3.26
2018-12-26T15:53:57.269Z,2.94
2018-12-26T15:58:58.204Z,2.94
2018-12-26T16:04:00.078Z,2.83
2018-12-26T16:09:00.871Z,3.04
2018-12-26T16:14:01.538Z,2.81
2018-12-26T16:19:02.449Z,3.00
2018-12-26T16:24:03.157Z,2.60
2018-12-26T16:29:03.885Z,2.51
2018-12-26T16:34:04.542Z,2.48
2018-12-26T16:39:05.209Z,2.42
2018-12-26T16:44:05.839Z,2.32
2018-12-26T16:49:06.769Z,2.27
2018-12-26T16:54:07.442Z,2.13
2018-12-26T16:59:08.113Z,2.16
2018-12-26T17:04:08.989Z,1.24
2018-12-26T17:09:09.835Z,1.08
2018-12-26T17:14:10.662Z,1.40
2018-12-26T17:19:11.542Z,1.85
2018-12-26T17:24:16.680Z,1.77
2018-12-26T17:29:15.071Z,1.81
2018-12-26T17:34:15.744Z,1.71
2018-12-26T17:39:16.381Z,1.91
2018-12-26T17:44:17.029Z,1.96
2018-12-26T17:49:17.696Z,1.80
2018-12-26T17:54:22.259Z,2.02
2018-12-26T17:59:39.841Z,2.14
2018-12-26T18:04:40.625Z,2.25
2018-12-26T18:09:41.400Z,2.34
2018-12-26T18:14:42.355Z,2.40
2018-12-26T18:19:43.191Z,2.68
2018-12-26T18:24:45.008Z,2.47
2018-12-26T18:29:45.967Z,2.64
2018-12-26T18:34:47.015Z,2.28
2018-12-26T18:39:47.868Z,2.77
2018-12-26T18:44:48.739Z,2.78
2018-12-26T18:49:49.440Z,2.92
2018-12-26T18:54:50.049Z,2.88
2018-12-26T18:59:50.750Z,2.56
2018-12-26T19:04:51.456Z,2.35
2018-12-26T19:09:52.392Z,2.39
2018-12-26T19:14:53.061Z,2.25
2018-12-26T19:19:53.742Z,2.09
2018-12-26T19:24:54.374Z,2.85
2018-12-26T19:29:59.341Z,2.85
2018-12-26T19:34:57.631Z,3.07
2018-12-26T19:39:58.595Z,3.27
2018-12-26T19:44:59.482Z,2.59
2018-12-26T19:50:04.720Z,2.45
2018-12-26T19:55:05.790Z,2.41
2018-12-26T20:00:08.446Z,2.61
2018-12-26T20:05:09.120Z,2.38
2018-12-26T20:10:09.741Z,2.47
2018-12-26T20:15:10.660Z,2.19
2018-12-26T20:20:11.340Z,2.08
2018-12-26T20:25:12.286Z,1.20
2018-12-26T20:30:12.972Z,1.18
2018-12-26T20:35:13.959Z,1.13
2018-12-26T20:40:14.659Z,0.66
2018-12-26T20:45:15.355Z,0.60
2018-12-26T20:50:16.063Z,0.35
2018-12-26T20:55:16.957Z,0.43
2018-12-26T21:00:17.689Z,0.45
2018-12-26T21:05:18.353Z,0.55
2018-12-26T21:10:19.116Z,0.73
2018-12-26T21:15:20.134Z,0.60
2018-12-26T21:20:21.016Z,0.62
2018-12-26T21:25:21.967Z,0.59
2018-12-26T21:30:22.822Z,0.42
2018-12-26T21:35:23.451Z,0.26
2018-12-26T21:40:24.331Z,0.38
2018-12-26T21:45:25.074Z,0.10
2018-12-26T21:50:25.947Z,0.37
2018-12-26T21:55:26.884Z,0.33
2018-12-26T22:00:27.517Z,0.34
2018-12-26T22:05:28.397Z,0.36
2018-12-26T22:10:29.128Z,0.60
2018-12-26T22:15:29.771Z,0.63
2018-12-26T22:20:30.409Z,0.41
2018-12-26T22:25:31.085Z,0.59
2018-12-26T22:30:31.964Z,0.34
2018-12-26T22:35:32.713Z,0.55
2018-12-26T22:40:33.429Z,0.55
2018-12-26T22:45:34.081Z,0.42
2018-12-26T22:50:34.736Z,0.45
2018-12-26T22:55:35.375Z,0.64
2018-12-26T23:00:36.033Z,0.62
2018-12-26T23:05:36.680Z,0.71
2018-12-26T23:10:37.302Z,0.76
2018-12-26T23:15:38.237Z,0.52
2018-12-26T23:20:39.182Z,0.54
2018-12-26T23:25:40.139Z,0.93
2018-12-26T23:30:41.076Z,0.98
2018-12-26T23:35:42.131Z,1.04
2018-12-26T23:40:42.857Z,1.05
2018-12-26T23:45:43.748Z,1.07
2018-12-26T23:50:44.736Z,1.01
2018-12-26T23:55:45.353Z,1.03
